sensor_id;sensor_type;location;lat;lon;timestamp;pressure;altitude;pressure_sealevel;temperature;humidity
19777;BME280;10047;42.490;26.012;2023-07-30T00:01:15;100311.78;;;21.43;100.00
19777;BME280;10047;42.490;26.012;2023-07-30T00:03:40;100371.28;;;21.55;100.00
19777;BME280;10047;42.490;26.012;2023-07-30T00:06:05;100312.38;;;21.72;100.00
19777;BME280;10047;42.490;26.012;2023-07-30T00:08:31;100349.88;;;21.66;100.00
19777;BME280;10047;42.490;26.012;2023-07-30T00:10:57;100371.22;;;21.82;100.00
19777;BME280;10047;42.490;26.012;2023-07-30T00:13:24;100339.47;;;21.28;100.00
19777;BME280;10047;42.490;26.012;2023-07-30T00:15:49;100318.69;;;21.30;100.00
19777;BME280;10047;42.490;26.012;2023-07-30T00:18:15;100353.38;;;21.78;100.00
19777;BME280;10047;42.490;26.012;2023-07-30T00:20:41;100361.03;;;21.79;100.00
19777;BME280;10047;42.490;26.012;2023-07-30T00:23:07;100309.16;;;21.18;100.00
19777;BME280;10047;42.490;26.012;2023-07-30T00:25:32;100344.47;;;21.44;100.00
19777;BME280;10047;42.490;26.012;2023-07-30T00:27:58;100334.22;;;21.68;100.00
19777;BME280;10047;42.490;26.012;2023-07-30T00:30:23;100357.09;;;21.36;100.00
19777;BME280;10047;42.490;26.012;2023-07-30T00:32:48;100287.84;;;21.27;100.00
19777;BME280;10047;42.490;26.012;2023-07-30T00:35:14;100354.00;;;21.56;100.00
19777;BME280;10047;42.490;26.012;2023-07-30T00:37:40;100340.84;;;21.59;100.00
19777;BME280;10047;42.490;26.012;2023-07-30T00:40:06;100352.03;;;21.59;100.00
19777;BME280;10047;42.490;26.012;2023-07-30T00:42:31;100321.41;;;21.41;100.00
19777;BME280;10047;42.490;26.012;2023-07-30T00:44:57;100322.44;;;21.38;100.00
19777;BME280;10047;42.490;26.012;2023-07-30T00:47:22;100346.31;;;21.67;100.00
19777;BME280;10047;42.490;26.012;2023-07-30T00:49:49;100303.47;;;21.38;100.00
19777;BME280;10047;42.490;26.012;2023-07-30T00:52:18;100332.16;;;21.35;100.00
19777;BME280;10047;42.490;26.012;2023-07-30T00:54:45;100336.97;;;21.14;100.00
19777;BME280;10047;42.490;26.012;2023-07-30T00:57:11;100347.66;;;21.22;100.00
19777;BME280;10047;42.490;26.012;2023-07-30T00:59:37;100331.38;;;21.08;100.00
19777;BME280;10047;42.490;26.012;2023-07-30T01:02:04;100309.16;;;21.05;100.00
19777;BME280;10047;42.490;26.012;2023-07-30T01:04:29;100289.84;;;20.97;100.00
19777;BME280;10047;42.490;26.012;2023-07-30T01:06:55;100270.69;;;20.87;100.00
19777;BME280;10047;42.490;26.012;2023-07-30T01:09:21;100230.66;;;20.67;100.00
19777;BME280;10047;42.490;26.012;2023-07-30T01:11:47;100283.00;;;20.96;100.00
19777;BME280;10047;42.490;26.012;2023-07-30T01:14:13;100193.22;;;20.21;100.00
19777;BME280;10047;42.490;26.012;2023-07-30T01:16:40;100279.34;;;21.12;100.00
19777;BME280;10047;42.490;26.012;2023-07-30T01:19:07;100267.66;;;21.07;100.00
19777;BME280;10047;42.490;26.012;2023-07-30T01:21:34;100218.81;;;20.50;100.00
19777;BME280;10047;42.490;26.012;2023-07-30T01:23:59;100288.03;;;21.24;100.00
19777;BME280;10047;42.490;26.012;2023-07-30T01:26:30;100233.03;;;20.70;100.00
19777;BME280;10047;42.490;26.012;2023-07-30T01:28:58;100278.44;;;20.87;100.00
19777;BME280;10047;42.490;26.012;2023-07-30T01:31:26;100249.06;;;20.75;100.00
19777;BME280;10047;42.490;26.012;2023-07-30T01:33:54;100244.22;;;20.96;100.00
19777;BME280;10047;42.490;26.012;2023-07-30T01:36:20;100237.13;;;20.99;100.00
19777;BME280;10047;42.490;26.012;2023-07-30T01:38:47;100197.34;;;20.23;100.00
19777;BME280;10047;42.490;26.012;2023-07-30T01:41:14;100185.06;;;20.53;100.00
19777;BME280;10047;42.490;26.012;2023-07-30T01:43:40;100251.25;;;20.94;100.00
19777;BME280;10047;42.490;26.012;2023-07-30T01:46:05;100301.63;;;21.40;100.00
19777;BME280;10047;42.490;26.012;2023-07-30T01:48:32;100192.88;;;21.04;100.00
19777;BME280;10047;42.490;26.012;2023-07-30T01:50:57;100269.22;;;21.59;100.00
19777;BME280;10047;42.490;26.012;2023-07-30T01:53:23;100292.00;;;21.17;100.00
19777;BME280;10047;42.490;26.012;2023-07-30T01:55:48;100270.53;;;20.36;100.00
19777;BME280;10047;42.490;26.012;2023-07-30T01:58:14;100222.19;;;20.38;100.00
19777;BME280;10047;42.490;26.012;2023-07-30T02:00:40;100226.22;;;20.42;100.00
19777;BME280;10047;42.490;26.012;2023-07-30T02:03:05;100278.03;;;20.80;100.00
19777;BME280;10047;42.490;26.012;2023-07-30T02:05:31;100268.00;;;20.76;100.00
19777;BME280;10047;42.490;26.012;2023-07-30T02:07:57;100211.00;;;20.11;100.00
19777;BME280;10047;42.490;26.012;2023-07-30T02:10:24;100205.16;;;20.36;100.00
19777;BME280;10047;42.490;26.012;2023-07-30T02:12:50;100165.56;;;20.09;100.00
19777;BME280;10047;42.490;26.012;2023-07-30T02:15:15;100215.56;;;20.34;100.00
19777;BME280;10047;42.490;26.012;2023-07-30T02:17:41;100264.56;;;20.36;100.00
19777;BME280;10047;42.490;26.012;2023-07-30T02:20:07;100243.75;;;20.64;100.00
19777;BME280;10047;42.490;26.012;2023-07-30T02:22:32;100268.34;;;20.57;100.00
19777;BME280;10047;42.490;26.012;2023-07-30T02:24:58;100265.59;;;20.72;100.00
19777;BME280;10047;42.490;26.012;2023-07-30T02:27:23;100224.19;;;20.21;100.00
19777;BME280;10047;42.490;26.012;2023-07-30T02:29:49;100308.56;;;20.61;100.00
19777;BME280;10047;42.490;26.012;2023-07-30T02:32:16;100295.53;;;20.62;100.00
19777;BME280;10047;42.490;26.012;2023-07-30T02:34:41;100231.72;;;19.83;100.00
19777;BME280;10047;42.490;26.012;2023-07-30T02:37:07;100337.53;;;20.11;100.00
19777;BME280;10047;42.490;26.012;2023-07-30T02:39:32;100289.03;;;20.16;100.00
19777;BME280;10047;42.490;26.012;2023-07-30T02:41:58;100335.41;;;20.18;100.00
19777;BME280;10047;42.490;26.012;2023-07-30T02:44:23;100340.97;;;19.98;100.00
19777;BME280;10047;42.490;26.012;2023-07-30T02:46:48;100296.72;;;19.75;100.00
19777;BME280;10047;42.490;26.012;2023-07-30T02:49:14;100325.38;;;19.99;100.00
19777;BME280;10047;42.490;26.012;2023-07-30T02:51:39;100296.34;;;19.81;100.00
19777;BME280;10047;42.490;26.012;2023-07-30T02:54:06;100363.34;;;20.11;100.00
19777;BME280;10047;42.490;26.012;2023-07-30T02:56:32;100365.22;;;20.23;100.00
19777;BME280;10047;42.490;26.012;2023-07-30T02:58:59;100369.47;;;20.10;100.00
19777;BME280;10047;42.490;26.012;2023-07-30T03:01:24;100279.13;;;19.68;100.00
19777;BME280;10047;42.490;26.012;2023-07-30T03:03:49;100336.06;;;20.07;100.00
19777;BME280;10047;42.490;26.012;2023-07-30T03:06:15;100370.81;;;20.16;100.00
19777;BME280;10047;42.490;26.012;2023-07-30T03:08:45;100376.16;;;20.13;100.00
19777;BME280;10047;42.490;26.012;2023-07-30T03:11:10;100338.66;;;20.07;100.00
19777;BME280;10047;42.490;26.012;2023-07-30T03:13:36;100335.53;;;19.88;100.00
19777;BME280;10047;42.490;26.012;2023-07-30T03:16:01;100383.63;;;20.17;100.00
19777;BME280;10047;42.490;26.012;2023-07-30T03:18:26;100338.28;;;20.13;100.00
19777;BME280;10047;42.490;26.012;2023-07-30T03:21:01;100381.97;;;20.44;100.00
19777;BME280;10047;42.490;26.012;2023-07-30T03:23:27;100342.34;;;19.89;100.00
19777;BME280;10047;42.490;26.012;2023-07-30T03:25:52;100247.13;;;19.28;100.00
19777;BME280;10047;42.490;26.012;2023-07-30T03:28:18;100395.38;;;20.23;100.00
19777;BME280;10047;42.490;26.012;2023-07-30T03:30:43;100322.31;;;20.07;100.00
19777;BME280;10047;42.490;26.012;2023-07-30T03:33:09;100324.25;;;20.03;100.00
19777;BME280;10047;42.490;26.012;2023-07-30T03:35:34;100373.69;;;20.25;100.00
19777;BME280;10047;42.490;26.012;2023-07-30T03:37:59;100378.75;;;20.41;100.00
19777;BME280;10047;42.490;26.012;2023-07-30T03:40:25;100378.09;;;20.51;100.00
19777;BME280;10047;42.490;26.012;2023-07-30T03:42:50;100381.38;;;20.67;100.00
19777;BME280;10047;42.490;26.012;2023-07-30T03:45:16;100372.38;;;20.46;100.00
19777;BME280;10047;42.490;26.012;2023-07-30T03:47:41;100373.09;;;20.48;100.00
19777;BME280;10047;42.490;26.012;2023-07-30T03:50:07;100332.59;;;20.22;100.00
19777;BME280;10047;42.490;26.012;2023-07-30T03:52:32;100335.78;;;20.40;100.00
19777;BME280;10047;42.490;26.012;2023-07-30T03:54:58;100318.84;;;20.48;100.00
19777;BME280;10047;42.490;26.012;2023-07-30T03:57:23;100322.78;;;20.27;100.00
19777;BME280;10047;42.490;26.012;2023-07-30T03:59:49;100389.03;;;20.69;100.00
19777;BME280;10047;42.490;26.012;2023-07-30T04:02:14;100328.38;;;20.48;100.00
19777;BME280;10047;42.490;26.012;2023-07-30T04:04:42;100382.47;;;20.78;100.00
19777;BME280;10047;42.490;26.012;2023-07-30T04:07:09;100297.47;;;20.32;100.00
19777;BME280;10047;42.490;26.012;2023-07-30T04:09:35;100383.94;;;20.94;100.00
19777;BME280;10047;42.490;26.012;2023-07-30T04:12:00;100327.38;;;20.63;100.00
19777;BME280;10047;42.490;26.012;2023-07-30T04:14:26;100382.47;;;21.04;100.00
19777;BME280;10047;42.490;26.012;2023-07-30T04:16:51;100395.34;;;21.18;100.00
19777;BME280;10047;42.490;26.012;2023-07-30T04:19:17;100388.00;;;21.25;100.00
19777;BME280;10047;42.490;26.012;2023-07-30T04:21:43;100353.81;;;20.81;100.00
19777;BME280;10047;42.490;26.012;2023-07-30T04:24:08;100339.59;;;21.00;100.00
19777;BME280;10047;42.490;26.012;2023-07-30T04:26:33;100286.75;;;20.92;100.00
19777;BME280;10047;42.490;26.012;2023-07-30T04:28:59;100312.34;;;21.09;100.00
19777;BME280;10047;42.490;26.012;2023-07-30T04:31:24;100361.97;;;21.53;100.00
19777;BME280;10047;42.490;26.012;2023-07-30T04:33:50;100366.19;;;21.41;100.00
19777;BME280;10047;42.490;26.012;2023-07-30T04:36:15;100313.13;;;21.48;100.00
19777;BME280;10047;42.490;26.012;2023-07-30T04:38:40;100245.31;;;21.18;100.00
19777;BME280;10047;42.490;26.012;2023-07-30T04:41:06;100386.31;;;21.76;100.00
19777;BME280;10047;42.490;26.012;2023-07-30T04:43:32;100322.94;;;21.31;100.00
19777;BME280;10047;42.490;26.012;2023-07-30T04:45:57;100383.00;;;22.11;100.00
19777;BME280;10047;42.490;26.012;2023-07-30T04:48:23;100381.97;;;22.01;100.00
19777;BME280;10047;42.490;26.012;2023-07-30T04:50:48;100280.84;;;22.03;100.00
19777;BME280;10047;42.490;26.012;2023-07-30T04:53:13;100338.97;;;22.48;100.00
19777;BME280;10047;42.490;26.012;2023-07-30T04:55:39;100384.66;;;22.74;100.00
19777;BME280;10047;42.490;26.012;2023-07-30T04:58:04;100335.31;;;22.63;100.00
19777;BME280;10047;42.490;26.012;2023-07-30T05:00:30;100321.66;;;22.48;100.00
19777;BME280;10047;42.490;26.012;2023-07-30T05:02:55;100351.75;;;22.74;100.00
19777;BME280;10047;42.490;26.012;2023-07-30T05:05:21;100381.75;;;23.13;100.00
19777;BME280;10047;42.490;26.012;2023-07-30T05:07:46;100379.28;;;23.46;100.00
19777;BME280;10047;42.490;26.012;2023-07-30T05:10:11;100332.19;;;23.40;100.00
19777;BME280;10047;42.490;26.012;2023-07-30T05:12:37;100345.31;;;23.25;100.00
19777;BME280;10047;42.490;26.012;2023-07-30T05:15:03;100360.97;;;23.37;100.00
19777;BME280;10047;42.490;26.012;2023-07-30T05:17:28;100385.94;;;23.72;100.00
19777;BME280;10047;42.490;26.012;2023-07-30T05:19:54;100390.22;;;23.95;100.00
19777;BME280;10047;42.490;26.012;2023-07-30T05:22:19;100387.88;;;24.15;100.00
19777;BME280;10047;42.490;26.012;2023-07-30T05:24:45;100361.06;;;24.14;100.00
19777;BME280;10047;42.490;26.012;2023-07-30T05:27:10;100383.25;;;23.96;100.00
19777;BME280;10047;42.490;26.012;2023-07-30T05:29:36;100369.66;;;24.48;100.00
19777;BME280;10047;42.490;26.012;2023-07-30T05:32:01;100326.47;;;24.56;100.00
19777;BME280;10047;42.490;26.012;2023-07-30T05:34:27;100373.59;;;24.85;100.00
19777;BME280;10047;42.490;26.012;2023-07-30T05:36:52;100361.97;;;24.46;100.00
19777;BME280;10047;42.490;26.012;2023-07-30T05:39:17;100361.59;;;24.62;100.00
19777;BME280;10047;42.490;26.012;2023-07-30T05:41:43;100413.97;;;25.32;100.00
19777;BME280;10047;42.490;26.012;2023-07-30T05:44:08;100410.25;;;25.45;100.00
19777;BME280;10047;42.490;26.012;2023-07-30T05:46:33;100420.63;;;25.25;100.00
19777;BME280;10047;42.490;26.012;2023-07-30T05:48:59;100354.75;;;25.45;100.00
19777;BME280;10047;42.490;26.012;2023-07-30T05:51:25;100365.31;;;25.12;100.00
19777;BME280;10047;42.490;26.012;2023-07-30T05:53:50;100351.13;;;25.57;100.00
19777;BME280;10047;42.490;26.012;2023-07-30T05:56:15;100435.44;;;26.27;100.00
19777;BME280;10047;42.490;26.012;2023-07-30T05:58:43;100439.78;;;26.17;100.00
19777;BME280;10047;42.490;26.012;2023-07-30T06:01:09;100385.81;;;26.08;100.00
19777;BME280;10047;42.490;26.012;2023-07-30T06:03:34;100441.78;;;26.34;100.00
19777;BME280;10047;42.490;26.012;2023-07-30T06:06:01;100432.25;;;26.63;100.00
19777;BME280;10047;42.490;26.012;2023-07-30T06:08:26;100428.28;;;26.29;100.00
19777;BME280;10047;42.490;26.012;2023-07-30T06:10:52;100373.63;;;26.68;100.00
19777;BME280;10047;42.490;26.012;2023-07-30T06:13:17;100380.34;;;26.21;100.00
19777;BME280;10047;42.490;26.012;2023-07-30T06:15:42;100388.75;;;25.94;100.00
19777;BME280;10047;42.490;26.012;2023-07-30T06:18:08;100377.06;;;26.68;100.00
19777;BME280;10047;42.490;26.012;2023-07-30T06:20:33;100391.22;;;26.75;100.00
19777;BME280;10047;42.490;26.012;2023-07-30T06:22:59;100403.19;;;26.87;100.00
19777;BME280;10047;42.490;26.012;2023-07-30T06:25:24;100446.91;;;27.62;100.00
19777;BME280;10047;42.490;26.012;2023-07-30T06:27:50;100465.31;;;27.70;100.00
19777;BME280;10047;42.490;26.012;2023-07-30T06:30:16;100407.03;;;26.93;100.00
19777;BME280;10047;42.490;26.012;2023-07-30T06:32:41;100458.81;;;26.78;100.00
19777;BME280;10047;42.490;26.012;2023-07-30T06:35:07;100453.78;;;27.72;100.00
19777;BME280;10047;42.490;26.012;2023-07-30T06:37:32;100456.03;;;28.13;100.00
19777;BME280;10047;42.490;26.012;2023-07-30T06:39:59;100458.13;;;28.10;100.00
19777;BME280;10047;42.490;26.012;2023-07-30T06:42:24;100420.81;;;28.08;100.00
19777;BME280;10047;42.490;26.012;2023-07-30T06:44:50;100461.47;;;28.29;100.00
19777;BME280;10047;42.490;26.012;2023-07-30T06:47:15;100459.72;;;27.36;100.00
19777;BME280;10047;42.490;26.012;2023-07-30T06:49:40;100404.97;;;26.96;100.00
19777;BME280;10047;42.490;26.012;2023-07-30T06:52:06;100406.50;;;26.89;100.00
19777;BME280;10047;42.490;26.012;2023-07-30T06:54:32;100399.25;;;27.87;100.00
19777;BME280;10047;42.490;26.012;2023-07-30T06:56:57;100453.47;;;28.68;100.00
19777;BME280;10047;42.490;26.012;2023-07-30T06:59:22;100450.03;;;28.67;100.00
19777;BME280;10047;42.490;26.012;2023-07-30T07:01:48;100411.75;;;28.29;100.00
19777;BME280;10047;42.490;26.012;2023-07-30T07:04:13;100397.44;;;28.78;100.00
19777;BME280;10047;42.490;26.012;2023-07-30T07:06:39;100435.41;;;29.45;100.00
19777;BME280;10047;42.490;26.012;2023-07-30T07:09:04;100400.19;;;29.22;100.00
19777;BME280;10047;42.490;26.012;2023-07-30T07:11:29;100413.25;;;29.65;100.00
19777;BME280;10047;42.490;26.012;2023-07-30T07:13:55;100389.97;;;29.62;100.00
19777;BME280;10047;42.490;26.012;2023-07-30T07:16:20;100418.34;;;29.66;100.00
19777;BME280;10047;42.490;26.012;2023-07-30T07:18:46;100432.66;;;29.98;100.00
19777;BME280;10047;42.490;26.012;2023-07-30T07:21:14;100425.38;;;29.66;100.00
19777;BME280;10047;42.490;26.012;2023-07-30T07:23:39;100388.22;;;29.45;100.00
19777;BME280;10047;42.490;26.012;2023-07-30T07:26:05;100422.94;;;29.90;100.00
19777;BME280;10047;42.490;26.012;2023-07-30T07:28:30;100410.53;;;30.00;100.00
19777;BME280;10047;42.490;26.012;2023-07-30T07:30:55;100371.94;;;30.26;100.00
19777;BME280;10047;42.490;26.012;2023-07-30T07:33:21;100346.44;;;29.18;100.00
19777;BME280;10047;42.490;26.012;2023-07-30T07:35:47;100419.97;;;30.60;100.00
19777;BME280;10047;42.490;26.012;2023-07-30T07:38:12;100379.69;;;29.68;100.00
19777;BME280;10047;42.490;26.012;2023-07-30T07:40:38;100415.69;;;30.51;100.00
19777;BME280;10047;42.490;26.012;2023-07-30T07:43:08;100386.03;;;30.25;100.00
19777;BME280;10047;42.490;26.012;2023-07-30T07:45:34;100417.44;;;30.93;100.00
19777;BME280;10047;42.490;26.012;2023-07-30T07:47:59;100417.38;;;30.27;100.00
19777;BME280;10047;42.490;26.012;2023-07-30T07:50:25;100373.88;;;30.16;100.00
19777;BME280;10047;42.490;26.012;2023-07-30T07:52:50;100377.66;;;30.71;100.00
19777;BME280;10047;42.490;26.012;2023-07-30T07:55:16;100368.03;;;30.88;100.00
19777;BME280;10047;42.490;26.012;2023-07-30T07:57:42;100386.88;;;30.75;100.00
19777;BME280;10047;42.490;26.012;2023-07-30T08:00:08;100346.38;;;30.86;100.00
19777;BME280;10047;42.490;26.012;2023-07-30T08:02:34;100376.25;;;31.41;100.00
19777;BME280;10047;42.490;26.012;2023-07-30T08:05:00;100379.78;;;30.60;100.00
19777;BME280;10047;42.490;26.012;2023-07-30T08:07:25;100331.41;;;31.03;100.00
19777;BME280;10047;42.490;26.012;2023-07-30T08:09:50;100366.88;;;31.39;100.00
19777;BME280;10047;42.490;26.012;2023-07-30T08:12:17;100385.06;;;32.19;100.00
19777;BME280;10047;42.490;26.012;2023-07-30T08:14:42;100389.78;;;31.93;100.00
19777;BME280;10047;42.490;26.012;2023-07-30T08:17:07;100335.50;;;31.13;100.00
19777;BME280;10047;42.490;26.012;2023-07-30T08:19:33;100359.88;;;31.78;100.00
19777;BME280;10047;42.490;26.012;2023-07-30T08:21:58;100335.78;;;32.05;100.00
19777;BME280;10047;42.490;26.012;2023-07-30T08:24:24;100371.91;;;32.19;100.00
19777;BME280;10047;42.490;26.012;2023-07-30T08:26:49;100383.56;;;32.64;100.00
19777;BME280;10047;42.490;26.012;2023-07-30T08:29:15;100344.25;;;32.77;100.00
19777;BME280;10047;42.490;26.012;2023-07-30T08:31:41;100306.69;;;32.07;100.00
19777;BME280;10047;42.490;26.012;2023-07-30T08:34:07;100365.28;;;32.85;100.00
19777;BME280;10047;42.490;26.012;2023-07-30T08:36:32;100305.00;;;32.36;100.00
19777;BME280;10047;42.490;26.012;2023-07-30T08:38:58;100334.19;;;33.03;100.00
19777;BME280;10047;42.490;26.012;2023-07-30T08:41:23;100290.94;;;33.26;100.00
19777;BME280;10047;42.490;26.012;2023-07-30T08:43:49;100339.94;;;32.84;100.00
19777;BME280;10047;42.490;26.012;2023-07-30T08:46:17;100265.50;;;32.82;100.00
19777;BME280;10047;42.490;26.012;2023-07-30T08:48:42;100337.13;;;33.22;100.00
19777;BME280;10047;42.490;26.012;2023-07-30T08:51:08;100277.16;;;32.42;100.00
19777;BME280;10047;42.490;26.012;2023-07-30T08:53:34;100322.75;;;33.48;100.00
19777;BME280;10047;42.490;26.012;2023-07-30T08:56:00;100346.38;;;33.70;100.00
19777;BME280;10047;42.490;26.012;2023-07-30T08:58:27;100293.38;;;33.28;100.00
19777;BME280;10047;42.490;26.012;2023-07-30T09:00:55;100312.88;;;33.85;100.00
19777;BME280;10047;42.490;26.012;2023-07-30T09:03:23;100309.56;;;33.48;100.00
19777;BME280;10047;42.490;26.012;2023-07-30T09:05:50;100290.50;;;33.23;100.00
19777;BME280;10047;42.490;26.012;2023-07-30T09:08:17;100296.44;;;33.54;100.00
19777;BME280;10047;42.490;26.012;2023-07-30T09:10:43;100337.50;;;34.22;100.00
19777;BME280;10047;42.490;26.012;2023-07-30T09:13:08;100354.91;;;34.16;100.00
19777;BME280;10047;42.490;26.012;2023-07-30T09:15:36;100293.63;;;34.84;100.00
19777;BME280;10047;42.490;26.012;2023-07-30T09:18:05;100339.38;;;33.77;100.00
19777;BME280;10047;42.490;26.012;2023-07-30T09:20:38;100343.97;;;33.46;100.00
19777;BME280;10047;42.490;26.012;2023-07-30T09:23:05;100334.41;;;33.31;100.00
19777;BME280;10047;42.490;26.012;2023-07-30T09:25:30;100318.81;;;34.59;100.00
19777;BME280;10047;42.490;26.012;2023-07-30T09:27:55;100287.94;;;32.78;100.00
19777;BME280;10047;42.490;26.012;2023-07-30T09:30:26;100272.91;;;33.01;100.00
19777;BME280;10047;42.490;26.012;2023-07-30T09:32:54;100290.66;;;32.84;100.00
19777;BME280;10047;42.490;26.012;2023-07-30T09:35:20;100226.81;;;33.70;100.00
19777;BME280;10047;42.490;26.012;2023-07-30T09:37:46;100301.88;;;34.53;100.00
19777;BME280;10047;42.490;26.012;2023-07-30T09:40:13;100269.00;;;33.26;100.00
19777;BME280;10047;42.490;26.012;2023-07-30T09:42:43;100257.53;;;34.49;100.00
19777;BME280;10047;42.490;26.012;2023-07-30T09:45:24;100302.84;;;34.94;100.00
19777;BME280;10047;42.490;26.012;2023-07-30T09:47:51;100264.69;;;34.55;100.00
19777;BME280;10047;42.490;26.012;2023-07-30T09:50:17;100286.66;;;34.76;100.00
19777;BME280;10047;42.490;26.012;2023-07-30T09:52:43;100265.19;;;34.23;100.00
19777;BME280;10047;42.490;26.012;2023-07-30T09:55:09;100287.75;;;34.88;100.00
19777;BME280;10047;42.490;26.012;2023-07-30T09:57:35;100244.66;;;35.22;100.00
19777;BME280;10047;42.490;26.012;2023-07-30T10:00:02;100235.56;;;34.97;100.00
19777;BME280;10047;42.490;26.012;2023-07-30T10:02:29;100257.66;;;34.62;100.00
19777;BME280;10047;42.490;26.012;2023-07-30T10:04:59;100261.03;;;34.77;100.00
19777;BME280;10047;42.490;26.012;2023-07-30T10:07:26;100235.88;;;34.60;100.00
19777;BME280;10047;42.490;26.012;2023-07-30T10:09:56;100163.31;;;34.90;100.00
19777;BME280;10047;42.490;26.012;2023-07-30T10:12:27;100194.31;;;35.03;100.00
19777;BME280;10047;42.490;26.012;2023-07-30T10:14:53;100246.84;;;35.46;100.00
19777;BME280;10047;42.490;26.012;2023-07-30T10:17:19;100181.38;;;33.95;100.00
19777;BME280;10047;42.490;26.012;2023-07-30T10:19:49;100220.03;;;34.60;100.00
19777;BME280;10047;42.490;26.012;2023-07-30T10:25:00;100213.53;;;35.58;100.00
19777;BME280;10047;42.490;26.012;2023-07-30T10:27:27;100230.78;;;35.95;100.00
19777;BME280;10047;42.490;26.012;2023-07-30T10:30:22;100209.41;;;34.81;100.00
19777;BME280;10047;42.490;26.012;2023-07-30T10:35:46;100214.25;;;35.39;100.00
19777;BME280;10047;42.490;26.012;2023-07-30T10:38:30;100212.69;;;35.58;100.00
19777;BME280;10047;42.490;26.012;2023-07-30T10:43:31;100168.31;;;35.06;100.00
19777;BME280;10047;42.490;26.012;2023-07-30T10:45:58;100165.06;;;35.58;100.00
19777;BME280;10047;42.490;26.012;2023-07-30T10:48:40;100211.75;;;35.79;100.00
19777;BME280;10047;42.490;26.012;2023-07-30T10:51:08;100205.03;;;35.83;100.00
19777;BME280;10047;42.490;26.012;2023-07-30T10:53:34;100199.94;;;35.74;100.00
19777;BME280;10047;42.490;26.012;2023-07-30T10:56:03;100155.53;;;34.82;100.00
19777;BME280;10047;42.490;26.012;2023-07-30T10:58:33;100144.97;;;34.88;100.00
19777;BME280;10047;42.490;26.012;2023-07-30T11:01:02;100201.50;;;35.15;100.00
19777;BME280;10047;42.490;26.012;2023-07-30T11:03:28;100147.47;;;35.37;100.00
19777;BME280;10047;42.490;26.012;2023-07-30T11:05:54;100167.91;;;35.09;100.00
19777;BME280;10047;42.490;26.012;2023-07-30T11:08:37;100128.63;;;34.72;100.00
19777;BME280;10047;42.490;26.012;2023-07-30T11:11:05;100130.66;;;34.70;100.00
19777;BME280;10047;42.490;26.012;2023-07-30T11:13:41;100124.75;;;34.68;100.00
19777;BME280;10047;42.490;26.012;2023-07-30T11:16:11;100164.09;;;35.25;100.00
19777;BME280;10047;42.490;26.012;2023-07-30T11:18:37;100121.22;;;35.42;100.00
19777;BME280;10047;42.490;26.012;2023-07-30T11:21:03;100164.56;;;34.94;100.00
19777;BME280;10047;42.490;26.012;2023-07-30T11:23:29;100103.50;;;34.89;100.00
19777;BME280;10047;42.490;26.012;2023-07-30T11:25:54;100129.84;;;35.51;100.00
19777;BME280;10047;42.490;26.012;2023-07-30T11:28:34;100071.75;;;35.30;100.00
19777;BME280;10047;42.490;26.012;2023-07-30T11:31:02;100103.38;;;35.64;100.00
19777;BME280;10047;42.490;26.012;2023-07-30T11:33:28;100130.69;;;35.78;100.00
19777;BME280;10047;42.490;26.012;2023-07-30T11:35:57;100109.13;;;35.14;100.00
19777;BME280;10047;42.490;26.012;2023-07-30T11:38:25;100147.56;;;35.10;100.00
19777;BME280;10047;42.490;26.012;2023-07-30T11:40:51;100087.50;;;34.63;100.00
19777;BME280;10047;42.490;26.012;2023-07-30T11:43:17;100062.47;;;34.59;100.00
19777;BME280;10047;42.490;26.012;2023-07-30T11:45:42;100123.91;;;35.49;100.00
19777;BME280;10047;42.490;26.012;2023-07-30T11:48:09;100124.63;;;35.23;100.00
19777;BME280;10047;42.490;26.012;2023-07-30T11:50:49;100132.38;;;35.98;100.00
19777;BME280;10047;42.490;26.012;2023-07-30T11:53:16;100128.50;;;35.94;100.00
19777;BME280;10047;42.490;26.012;2023-07-30T11:55:43;100114.09;;;35.43;100.00
19777;BME280;10047;42.490;26.012;2023-07-30T11:58:09;100086.13;;;35.08;100.00
19777;BME280;10047;42.490;26.012;2023-07-30T12:00:44;100095.75;;;35.35;99.76
19777;BME280;10047;42.490;26.012;2023-07-30T12:03:11;100053.22;;;35.30;99.35
19777;BME280;10047;42.490;26.012;2023-07-30T12:05:38;100087.22;;;35.39;98.45
19777;BME280;10047;42.490;26.012;2023-07-30T12:08:05;100064.50;;;35.84;100.00
19777;BME280;10047;42.490;26.012;2023-07-30T12:10:43;100045.09;;;35.38;95.56
19777;BME280;10047;42.490;26.012;2023-07-30T12:13:16;100083.03;;;35.78;96.09
19777;BME280;10047;42.490;26.012;2023-07-30T12:15:55;100044.66;;;35.34;98.09
19777;BME280;10047;42.490;26.012;2023-07-30T12:18:23;100078.19;;;35.08;96.12
19777;BME280;10047;42.490;26.012;2023-07-30T12:20:49;100069.63;;;35.12;93.79
19777;BME280;10047;42.490;26.012;2023-07-30T12:23:21;100077.31;;;35.54;98.84
19777;BME280;10047;42.490;26.012;2023-07-30T12:25:46;100088.78;;;35.94;100.00
19777;BME280;10047;42.490;26.012;2023-07-30T12:28:12;100045.19;;;36.03;100.00
19777;BME280;10047;42.490;26.012;2023-07-30T12:30:38;100084.31;;;36.01;100.00
19777;BME280;10047;42.490;26.012;2023-07-30T12:33:04;100081.59;;;36.60;100.00
19777;BME280;10047;42.490;26.012;2023-07-30T12:35:33;100060.47;;;35.95;95.44